Timeline UpdatesTrip UpdatesNews PostsPvt PostsTravel TipsAdmin PostsConv PostsFollowed PostsChat RequestsBlog PostsPNR Posts

Disclaimer
Search
 
 
Sun Apr 20, 2014 13:47:20 ISTHomeTrainsΣChainsAtlasPNRForumGalleryNewsFAQTripsMembersLoginFeedback
No Recent News for this Train
Other Trains in the News **new
Latest...
-
Tue Feb 11, 2014 (11:47AM)
⇐ Return Journey: Train# 13020

13019/Bagh Express

Mar 23 (4:38PM)
Change Departure Station:
Change Arrival Station:
Post a Train Travel TipPost a Train Travel Tip **new
Post a Comment/Question/Picture/VideoPost a Comment/Question/Picture/Video
Pantry/Catering
✕ NO Pantry Car
✓ Catering Avbl
Loco/Rake Reversals
RMU/Rampur Junction (3); LJN/Lucknow Junction (6);
RSA - Rake Sharing
Rake/Coach Composition
LOCO-SLR-GS-GS-GS-S1-S2-S3-S4-S5-S6-S7-B1-A1-GS-GS-SLR
Loco
HWH WAP-4 (HWH-BJU); IZN WDP-4D (BJU-KGM)
News    PNR    Forum    Time-Table    Availability    Fare Chart    Map    Arr/Dep History    Trips    Gallery    ΣChains    X/O    Timeline    
Travel Time: 35h 45m    65 halts    Distance: 1519 km    Avg Speed: 42 km/hr
Type: Mail/Express
Zone: ER/Eastern
Departs @ 21:45 (Avg 14m late)
Platform# 11
SMTWTFS
Kolkata Howrah Junction/HWH 
Arrives @ 09:30 +2 nights (Avg 55m late)
Platform# ???
SMTWTFS
Kathgodam/KGM 

65 halts. 276 intermediate Stations between Kolkata Howrah Junction and Kathgodam

Show ALL intermediate Stations  Show Old Time-Table

#CodeStation NameX/OArrivesAvgDepartsAvgHaltPFDay#KmSpeedElevZoneAddress
1HWH»Kolkata Howrah Junction (23)»  -21:45+141110.05910mERHowrah 711101, West Bengal
2SRPSerampore (4)X  22:05+2122:06+261m--119.74011mERdist - hooghly, West Bengal
3BDCBandel Junction (7)  22:36+1922:41+205m--139.67914mERdist - HOOGHLY, West Bengal
4BWNBarddhaman Junction (8)X  23:32+2623:37+255m21106.87834mERDist - Barddhaman, West Bengal
5DGRDurgapur (5)  00:26+3300:28+332m32170.47971mERDurgapur, West Bengal
6UDLAndal Junction (6)X  00:41+3600:43+362m--2187.45586mERAndal, West Bengal
7RNGRaniGanj (4)O  00:51+3800:53+382m--2194.74392mERRaniganj, West Bengal
8ASNAsansol Junction (7)XO  01:18+3201:23+375m--2212.863113mERDist - bardhaman, West Bengal
9CRJChittaranjan (3)X  01:47+4501:48+481m32237.985182mERMihijam, Jharkhand
10MDPMadhupur Junction (4)X  02:28+5702:33+565m--2294.367254mER06432-224478, Jharkhand
11JSMEJasidih Junction (5)X  02:59+5803:04+585m22323.466271mERJasidih, Jharkhand
12STLSimultala (2)XO  03:27+4503:28+451m--2348.820247mERSimultala, Bihar
13JAJJhajha (4)  04:25+2904:35+2710m--2367.587143mECRJhajha, Bihar
14JMUJamui (3)X  04:53+3504:55+372m--2393.56681mECRState Highway 72, Bihar
15KIULKiul Junction (5)  05:20+4105:25+405m--2420.81453mECRDist. Lakhisarai, Bihar
16LKRLuckeesarai Junction (2)  05:31+4005:33+402m22422.12852mECRLakhisarai, Bihar
17BRYABarhiyaXO  06:05+2906:07+322m--2437.22047mECRBarahiya, Bihar
18DKGSDinkar Gram Simaria (3)  06:55-06:56-1m--2453.62147mECRSimaria Station, Bihar
19BJUBarauni Junction (9)X07:13+3907:33+4320m82459.752 ECRBegusarai, Bihar
20BCABachwara Junction  07:52+5407:54+542m--2476.03946mECRBegusarai, Bihar
21DSSDalsingh Sarai (2)X  08:11+5208:13+542m12487.05949mECR06278-221238, Bihar
22NAZJNazirGanj  08:21+5408:23+552m--2494.95451mECRNazirGanj, Bihar
23UJPUjiarpur (2)X  08:30+5608:32+1:002m--2501.23251mECRSamastipur, Bihar
24SPJSamastipur Junction (9)X  08:49+5908:55+596m92510.23455mECRSamastipur, Bihar
25KPGMKarpurigram (3)  09:06+1:0509:08+1:052m--2516.56351mECRState Highway 49, Bihar
26KRBPKhudiram B Pusa  09:15+1:0709:17+592m--2523.86752mECRDistt. Samastipur, Bihar
27DOLDholi (2)X  09:29+1:0109:31+1:032m--2537.25252mECRDistt. Muzaffarpur, Bihar
28MFPMuzaffarpur Junction (6)X  10:00+1:1310:10+1:2110m42562.36557mECRMuzaffarpur, Bihar
29GRLGoraul (2)  10:34+1:3510:36+1:412m22588.26257mECRNational Highway 77, Bihar
30BNRBhagwanpur (3)  10:44+1:4410:46+1:522m--2596.54960mECRBhagwanpur, Bihar
31HJPHajipur Junction (3)X  11:10+1:5711:15+2:035m--2616.23355mECR06224-272230, Bihar
32SEESonpur Junction (4)  11:25+2:0311:35+1:5910m--2621.75756mECRSaran, Bihar
33NYONayagaon (2)  11:47+2:0111:49+2:032m--2633.05553mECRNayagaon Sarai, Bihar
34DGADighwara (2)XO  12:02+2:0412:04+2:072m--2644.83060mECR06158-281240, Bihar
35CPRChhapra Junction (6)X  13:05+2:0613:15+2:0710m142675.76858mNERDistt: Saran, Bihar
36DDPDaudpur (2)  13:32+2:1113:34+2:122m--2695.05759mNERChhapra, Bihar
37EKMAEkma (3)  13:43+2:1213:45+2:142m--2703.64464mNERSaran, Bihar
38CWChainwa (2)X  13:55+2:1413:57+2:172m--2711.04963mNERSiwan, Bihar
39DDADuraundha Junction (3)O  14:07+2:1614:09+2:172m12719.23064mNERDistt: Siwan, Bihar
40SVSiwan Junction (4)X  14:45+2:0114:50+2:015m--2737.07770mNERSiwan, Bihar
41ZRDEJiradei (2)X  14:58+2:0515:00+2:052m--2747.36069mNERSiwan, Bihar
42MWMairwa (2)X  15:11+2:0515:13+2:052m--2758.24973mNERMairwa, Bihar
43BTKBankata (2)  15:21+2:0615:23+2:062m--2764.75473mNERDeoria, Uttar Pradesh
44BHTRBhatpar Rani (2)  15:32+2:0515:34+2:062m--2772.84873mNERDeoria, Uttar Pradesh
45BTTBhatni Junction (5)X  15:50+2:0215:55+2:025m--2785.76973mNERDeoria, Uttar Pradesh
46DEOSDeoria Sadar (3)X  16:13+2:0516:15+2:072m22806.44479mNERDeoria- 274001, Uttar Pradesh
47CCChauri Chaura (2)  16:49+1:5916:51+1:592m--2831.23084mNERGorakhpur- PinCode:- 273201, Uttar Pradesh
48GKPGorakhpur Junction (10)X  17:40+2:0318:00+2:0520m22855.65784mNERGorakhpur 273001, Uttar Pradesh
49KLDKhalilabad (3)X  18:36+2:1018:38+2:112m--2889.56686mNERKhalilabad- 272175, Uttar Pradesh
50BSTBasti (4)X  19:05+2:1419:10+2:145m12919.07190mNERBasti 272001, Uttar Pradesh
51GDGonda Junction (3)X  20:25+2:1220:35+2:1210m121007.579110mNERGonda 271001, Uttar Pradesh
52JLDJarwal Road (2)  21:10+2:1721:12+2:182m121053.654112mNERBehraich, Uttar Pradesh
53BBKBarabanki Junction (4)XO  22:00+2:1722:02+2:172m221096.840122mNRPin-225001, Uttar Pradesh
54BNZBadshahnagar (2)  22:39+2:1622:40+2:181m121121.411116mNERLucknow, Uttar Pradesh
55LCLucknow City (3)X  23:15+2:0623:17+2:042m121127.76127mNERLucknow, Uttar Pradesh
56LJNLucknow Junction (6)X00:01+1:3000:25+1:2924m131132.467126mNERLucknow, Uttar Pradesh
57HRIHardoi (5)X  01:56+1:5301:58+1:532m--31233.567146mNRHardoi, Uttar Pradesh
58ROZARoza Junction (4)X  02:48+1:4502:50+1:552m--31289.124156mNRShahjahanpur, Uttar Pradesh
59SPNShahjahanpur Junction (3)X  03:08+1:4803:13+1:495m--31296.472156mNRShahjahanpur, Uttar Pradesh
60BEBareilly Junction (4)X  04:12+1:5304:20+1:568m231366.950174mNRBareilly, Uttar Pradesh
61RMURampur Junction (3)05:35+1:4406:00+1:3825m131430.062190mNRRampur, Uttar Pradesh
62BLQRBilaspur Road  06:26+1:5106:27+1:531m--31456.851196mNERRampur, Uttar Pradesh
63RUPCRudrapur City  06:48+1:4806:53+1:495m--31474.824208mNERUdham Singh Nagar, Uttarakhand
64HLDDHaldi Road  07:28+1:3107:30+1:332m--31488.913236mNERNH 87, Uttarakhand
65LKULal Kuan Junction (4)X  08:05+1:1508:10+1:295m131496.519262mNERLalkuan, Uttarakhand
66HDWHaldwani (3)  09:01+1:0309:03+1:092m231512.913443mNERHaldwani, Uttarakhand
67KGM•Kathgodam (3)•  09:30+55---31518.7-520mNERKathgodam, Uttarakhand
Scroll to Top
Scroll to Bottom